sensor_id;sensor_type;location;lat;lon;timestamp;P1;durP1;ratioP1;P2;durP2;ratioP2
42196;SDS011;27866;48.146;17.098;2022-12-07T00:03:01;16.17;;;9.55;;
42196;SDS011;27866;48.146;17.098;2022-12-07T00:07:14;14.50;;;9.68;;
42196;SDS011;27866;48.146;17.098;2022-12-07T00:11:25;14.20;;;9.13;;
42196;SDS011;27866;48.146;17.098;2022-12-07T00:15:37;17.00;;;9.77;;
42196;SDS011;27866;48.146;17.098;2022-12-07T00:19:48;16.08;;;10.10;;
42196;SDS011;27866;48.146;17.098;2022-12-07T00:23:59;14.57;;;9.98;;
42196;SDS011;27866;48.146;17.098;2022-12-07T00:28:12;16.67;;;9.45;;
42196;SDS011;27866;48.146;17.098;2022-12-07T00:32:23;12.10;;;8.80;;
42196;SDS011;27866;48.146;17.098;2022-12-07T00:36:35;14.65;;;9.52;;
42196;SDS011;27866;48.146;17.098;2022-12-07T00:40:53;15.20;;;9.95;;
42196;SDS011;27866;48.146;17.098;2022-12-07T00:45:12;16.15;;;9.85;;
42196;SDS011;27866;48.146;17.098;2022-12-07T00:49:23;15.07;;;10.23;;
42196;SDS011;27866;48.146;17.098;2022-12-07T00:53:34;15.27;;;10.13;;
42196;SDS011;27866;48.146;17.098;2022-12-07T00:57:46;15.25;;;10.45;;
42196;SDS011;27866;48.146;17.098;2022-12-07T01:01:58;18.75;;;10.98;;
42196;SDS011;27866;48.146;17.098;2022-12-07T01:06:09;14.60;;;9.02;;
42196;SDS011;27866;48.146;17.098;2022-12-07T01:10:24;14.27;;;8.23;;
42196;SDS011;27866;48.146;17.098;2022-12-07T01:14:36;14.85;;;8.55;;
42196;SDS011;27866;48.146;17.098;2022-12-07T01:18:49;13.23;;;8.43;;
42196;SDS011;27866;48.146;17.098;2022-12-07T01:23:02;16.58;;;9.57;;
42196;SDS011;27866;48.146;17.098;2022-12-07T01:27:14;12.82;;;8.82;;
42196;SDS011;27866;48.146;17.098;2022-12-07T01:31:25;15.68;;;9.45;;
42196;SDS011;27866;48.146;17.098;2022-12-07T01:35:38;12.05;;;8.88;;
42196;SDS011;27866;48.146;17.098;2022-12-07T01:39:50;15.63;;;9.23;;
42196;SDS011;27866;48.146;17.098;2022-12-07T01:48:38;14.25;;;8.68;;
42196;SDS011;27866;48.146;17.098;2022-12-07T01:52:51;15.95;;;10.05;;
42196;SDS011;27866;48.146;17.098;2022-12-07T01:57:04;15.00;;;10.20;;
42196;SDS011;27866;48.146;17.098;2022-12-07T02:01:18;18.95;;;10.50;;
42196;SDS011;27866;48.146;17.098;2022-12-07T02:05:29;16.77;;;11.10;;
42196;SDS011;27866;48.146;17.098;2022-12-07T02:09:41;17.10;;;11.15;;
42196;SDS011;27866;48.146;17.098;2022-12-07T02:13:52;19.05;;;12.02;;
42196;SDS011;27866;48.146;17.098;2022-12-07T02:18:07;19.63;;;12.13;;
42196;SDS011;27866;48.146;17.098;2022-12-07T02:23:27;21.10;;;12.68;;
42196;SDS011;27866;48.146;17.098;2022-12-07T02:28:05;24.00;;;13.68;;
42196;SDS011;27866;48.146;17.098;2022-12-07T02:32:40;21.95;;;13.60;;
42196;SDS011;27866;48.146;17.098;2022-12-07T02:37:17;22.63;;;13.63;;
42196;SDS011;27866;48.146;17.098;2022-12-07T02:41:58;20.30;;;13.30;;
42196;SDS011;27866;48.146;17.098;2022-12-07T02:46:21;25.08;;;14.13;;
42196;SDS011;27866;48.146;17.098;2022-12-07T02:50:49;25.38;;;13.70;;
42196;SDS011;27866;48.146;17.098;2022-12-07T02:55:02;23.30;;;15.13;;
42196;SDS011;27866;48.146;17.098;2022-12-07T03:04:14;22.27;;;14.52;;
42196;SDS011;27866;48.146;17.098;2022-12-07T03:09:19;24.83;;;14.38;;
42196;SDS011;27866;48.146;17.098;2022-12-07T03:18:05;24.88;;;14.30;;
42196;SDS011;27866;48.146;17.098;2022-12-07T03:22:19;22.57;;;13.87;;
42196;SDS011;27866;48.146;17.098;2022-12-07T03:26:38;25.92;;;13.80;;
42196;SDS011;27866;48.146;17.098;2022-12-07T03:30:58;23.95;;;14.25;;
42196;SDS011;27866;48.146;17.098;2022-12-07T03:35:23;25.88;;;16.08;;
42196;SDS011;27866;48.146;17.098;2022-12-07T03:39:48;24.75;;;14.90;;
42196;SDS011;27866;48.146;17.098;2022-12-07T03:44:07;28.05;;;16.92;;
42196;SDS011;27866;48.146;17.098;2022-12-07T03:53:05;29.20;;;15.95;;
42196;SDS011;27866;48.146;17.098;2022-12-07T03:57:45;26.45;;;16.55;;
42196;SDS011;27866;48.146;17.098;2022-12-07T04:02:03;28.92;;;16.52;;
42196;SDS011;27866;48.146;17.098;2022-12-07T04:06:17;27.40;;;16.25;;
42196;SDS011;27866;48.146;17.098;2022-12-07T04:10:28;27.17;;;16.10;;
42196;SDS011;27866;48.146;17.098;2022-12-07T04:14:39;29.33;;;16.63;;
42196;SDS011;27866;48.146;17.098;2022-12-07T04:18:50;23.15;;;15.50;;
42196;SDS011;27866;48.146;17.098;2022-12-07T04:23:01;27.38;;;15.77;;
42196;SDS011;27866;48.146;17.098;2022-12-07T04:27:12;24.52;;;15.75;;
42196;SDS011;27866;48.146;17.098;2022-12-07T04:31:24;26.08;;;16.27;;
42196;SDS011;27866;48.146;17.098;2022-12-07T04:35:35;25.95;;;15.60;;
42196;SDS011;27866;48.146;17.098;2022-12-07T04:39:46;24.73;;;16.40;;
42196;SDS011;27866;48.146;17.098;2022-12-07T04:43:58;25.65;;;16.38;;
42196;SDS011;27866;48.146;17.098;2022-12-07T04:48:14;25.95;;;15.90;;
42196;SDS011;27866;48.146;17.098;2022-12-07T04:52:25;27.40;;;16.92;;
42196;SDS011;27866;48.146;17.098;2022-12-07T04:56:36;28.40;;;16.30;;
42196;SDS011;27866;48.146;17.098;2022-12-07T05:00:49;27.20;;;16.17;;
42196;SDS011;27866;48.146;17.098;2022-12-07T05:05:00;25.35;;;16.40;;
42196;SDS011;27866;48.146;17.098;2022-12-07T05:09:11;27.90;;;16.42;;
42196;SDS011;27866;48.146;17.098;2022-12-07T05:13:22;28.33;;;16.85;;
42196;SDS011;27866;48.146;17.098;2022-12-07T05:17:34;24.80;;;15.90;;
42196;SDS011;27866;48.146;17.098;2022-12-07T05:21:45;27.77;;;16.85;;
42196;SDS011;27866;48.146;17.098;2022-12-07T05:25:57;28.95;;;17.13;;
42196;SDS011;27866;48.146;17.098;2022-12-07T05:30:09;26.23;;;16.73;;
42196;SDS011;27866;48.146;17.098;2022-12-07T05:34:21;27.38;;;16.45;;
42196;SDS011;27866;48.146;17.098;2022-12-07T05:38:32;30.08;;;17.00;;
42196;SDS011;27866;48.146;17.098;2022-12-07T05:42:43;29.17;;;17.60;;
42196;SDS011;27866;48.146;17.098;2022-12-07T05:46:55;24.02;;;15.02;;
42196;SDS011;27866;48.146;17.098;2022-12-07T05:51:06;25.05;;;15.23;;
42196;SDS011;27866;48.146;17.098;2022-12-07T05:55:17;27.90;;;15.68;;
42196;SDS011;27866;48.146;17.098;2022-12-07T05:59:28;24.02;;;15.48;;
42196;SDS011;27866;48.146;17.098;2022-12-07T06:03:39;22.95;;;14.50;;
42196;SDS011;27866;48.146;17.098;2022-12-07T06:07:50;23.67;;;14.57;;
42196;SDS011;27866;48.146;17.098;2022-12-07T06:12:02;26.17;;;14.50;;
42196;SDS011;27866;48.146;17.098;2022-12-07T06:16:32;23.90;;;13.80;;
42196;SDS011;27866;48.146;17.098;2022-12-07T06:20:44;24.45;;;14.15;;
42196;SDS011;27866;48.146;17.098;2022-12-07T06:24:55;23.65;;;14.35;;
42196;SDS011;27866;48.146;17.098;2022-12-07T06:29:06;21.60;;;12.95;;
42196;SDS011;27866;48.146;17.098;2022-12-07T06:33:17;21.00;;;13.35;;
42196;SDS011;27866;48.146;17.098;2022-12-07T06:37:29;20.92;;;12.65;;
42196;SDS011;27866;48.146;17.098;2022-12-07T06:41:40;19.67;;;12.98;;
42196;SDS011;27866;48.146;17.098;2022-12-07T06:45:51;24.48;;;12.38;;
42196;SDS011;27866;48.146;17.098;2022-12-07T06:50:02;18.27;;;11.38;;
42196;SDS011;27866;48.146;17.098;2022-12-07T06:54:15;31.70;;;12.20;;
42196;SDS011;27866;48.146;17.098;2022-12-07T06:58:26;19.83;;;12.35;;
42196;SDS011;27866;48.146;17.098;2022-12-07T07:02:38;24.75;;;13.48;;
42196;SDS011;27866;48.146;17.098;2022-12-07T07:06:49;21.60;;;12.32;;
42196;SDS011;27866;48.146;17.098;2022-12-07T07:11:00;27.08;;;13.25;;
42196;SDS011;27866;48.146;17.098;2022-12-07T07:15:11;20.30;;;11.70;;
42196;SDS011;27866;48.146;17.098;2022-12-07T07:19:22;23.15;;;12.18;;
42196;SDS011;27866;48.146;17.098;2022-12-07T07:23:33;20.17;;;11.90;;
42196;SDS011;27866;48.146;17.098;2022-12-07T07:27:45;22.90;;;12.27;;
42196;SDS011;27866;48.146;17.098;2022-12-07T07:31:56;24.05;;;12.40;;
42196;SDS011;27866;48.146;17.098;2022-12-07T07:36:07;20.70;;;12.45;;
42196;SDS011;27866;48.146;17.098;2022-12-07T07:40:18;23.75;;;12.63;;
42196;SDS011;27866;48.146;17.098;2022-12-07T07:44:30;23.90;;;12.75;;
42196;SDS011;27866;48.146;17.098;2022-12-07T07:48:41;18.02;;;11.82;;
42196;SDS011;27866;48.146;17.098;2022-12-07T07:52:52;23.20;;;11.75;;
42196;SDS011;27866;48.146;17.098;2022-12-07T07:57:03;18.52;;;11.82;;
42196;SDS011;27866;48.146;17.098;2022-12-07T08:01:14;20.05;;;12.30;;
42196;SDS011;27866;48.146;17.098;2022-12-07T08:05:26;19.08;;;12.27;;
42196;SDS011;27866;48.146;17.098;2022-12-07T08:09:38;23.77;;;13.52;;
42196;SDS011;27866;48.146;17.098;2022-12-07T08:13:49;24.60;;;13.40;;
42196;SDS011;27866;48.146;17.098;2022-12-07T08:18:00;22.80;;;12.95;;
42196;SDS011;27866;48.146;17.098;2022-12-07T08:22:11;23.20;;;13.07;;
42196;SDS011;27866;48.146;17.098;2022-12-07T08:26:22;20.67;;;12.50;;
42196;SDS011;27866;48.146;17.098;2022-12-07T08:30:33;20.45;;;11.73;;
42196;SDS011;27866;48.146;17.098;2022-12-07T08:34:45;21.20;;;12.90;;
42196;SDS011;27866;48.146;17.098;2022-12-07T08:38:56;22.80;;;13.07;;
42196;SDS011;27866;48.146;17.098;2022-12-07T08:43:07;22.52;;;13.13;;
42196;SDS011;27866;48.146;17.098;2022-12-07T08:47:18;22.58;;;12.00;;
42196;SDS011;27866;48.146;17.098;2022-12-07T08:51:30;24.08;;;13.02;;
42196;SDS011;27866;48.146;17.098;2022-12-07T08:55:42;18.90;;;11.30;;
42196;SDS011;27866;48.146;17.098;2022-12-07T08:59:58;28.52;;;13.23;;
42196;SDS011;27866;48.146;17.098;2022-12-07T09:04:09;22.90;;;13.20;;
42196;SDS011;27866;48.146;17.098;2022-12-07T09:08:22;21.13;;;12.95;;
42196;SDS011;27866;48.146;17.098;2022-12-07T09:12:36;18.77;;;12.00;;
42196;SDS011;27866;48.146;17.098;2022-12-07T09:16:48;20.17;;;11.77;;
42196;SDS011;27866;48.146;17.098;2022-12-07T09:20:59;16.45;;;10.75;;
42196;SDS011;27866;48.146;17.098;2022-12-07T09:25:10;23.60;;;10.77;;
42196;SDS011;27866;48.146;17.098;2022-12-07T09:29:21;18.23;;;10.20;;
42196;SDS011;27866;48.146;17.098;2022-12-07T09:33:33;15.20;;;10.20;;
42196;SDS011;27866;48.146;17.098;2022-12-07T09:37:44;15.55;;;9.45;;
42196;SDS011;27866;48.146;17.098;2022-12-07T09:41:56;17.63;;;9.55;;
42196;SDS011;27866;48.146;17.098;2022-12-07T09:46:10;16.02;;;9.55;;
42196;SDS011;27866;48.146;17.098;2022-12-07T09:50:26;16.13;;;10.40;;
42196;SDS011;27866;48.146;17.098;2022-12-07T09:54:41;14.45;;;9.50;;
42196;SDS011;27866;48.146;17.098;2022-12-07T09:59:00;14.98;;;9.60;;
42196;SDS011;27866;48.146;17.098;2022-12-07T10:03:13;15.23;;;8.98;;
42196;SDS011;27866;48.146;17.098;2022-12-07T10:07:24;17.25;;;9.32;;
42196;SDS011;27866;48.146;17.098;2022-12-07T10:11:57;12.27;;;8.05;;
42196;SDS011;27866;48.146;17.098;2022-12-07T10:20:36;10.18;;;6.00;;
42196;SDS011;27866;48.146;17.098;2022-12-07T10:24:48;7.55;;;4.75;;
42196;SDS011;27866;48.146;17.098;2022-12-07T10:29:00;8.10;;;4.63;;
42196;SDS011;27866;48.146;17.098;2022-12-07T10:33:53;11.40;;;4.23;;
42196;SDS011;27866;48.146;17.098;2022-12-07T10:38:07;10.10;;;4.30;;
42196;SDS011;27866;48.146;17.098;2022-12-07T10:42:31;13.48;;;4.57;;
42196;SDS011;27866;48.146;17.098;2022-12-07T10:46:46;8.88;;;4.25;;
42196;SDS011;27866;48.146;17.098;2022-12-07T11:14:45;6.32;;;4.60;;
42196;SDS011;27866;48.146;17.098;2022-12-07T11:37:36;5.30;;;4.22;;
42196;SDS011;27866;48.146;17.098;2022-12-07T11:41:49;9.70;;;3.80;;
42196;SDS011;27866;48.146;17.098;2022-12-07T11:46:11;4.65;;;3.30;;
42196;SDS011;27866;48.146;17.098;2022-12-07T11:50:41;5.07;;;3.83;;
42196;SDS011;27866;48.146;17.098;2022-12-07T11:55:04;5.20;;;3.80;;
42196;SDS011;27866;48.146;17.098;2022-12-07T11:59:38;6.55;;;4.10;;
42196;SDS011;27866;48.146;17.098;2022-12-07T12:03:57;5.25;;;3.42;;
42196;SDS011;27866;48.146;17.098;2022-12-07T12:08:19;4.50;;;3.20;;
42196;SDS011;27866;48.146;17.098;2022-12-07T12:21:46;6.63;;;3.88;;
42196;SDS011;27866;48.146;17.098;2022-12-07T12:43:52;8.48;;;4.57;;
42196;SDS011;27866;48.146;17.098;2022-12-07T12:52:47;13.57;;;5.10;;
42196;SDS011;27866;48.146;17.098;2022-12-07T12:57:05;12.45;;;5.35;;
42196;SDS011;27866;48.146;17.098;2022-12-07T13:01:36;10.25;;;4.38;;
42196;SDS011;27866;48.146;17.098;2022-12-07T13:06:17;4.85;;;3.60;;
42196;SDS011;27866;48.146;17.098;2022-12-07T13:10:37;6.83;;;3.63;;
42196;SDS011;27866;48.146;17.098;2022-12-07T13:14:53;12.70;;;3.60;;
42196;SDS011;27866;48.146;17.098;2022-12-07T13:24:07;6.50;;;3.85;;
42196;SDS011;27866;48.146;17.098;2022-12-07T13:28:22;8.43;;;4.28;;
42196;SDS011;27866;48.146;17.098;2022-12-07T13:32:42;5.03;;;3.63;;
42196;SDS011;27866;48.146;17.098;2022-12-07T13:41:53;20.00;;;4.50;;
42196;SDS011;27866;48.146;17.098;2022-12-07T13:46:07;11.18;;;9.95;;
42196;SDS011;27866;48.146;17.098;2022-12-07T13:50:30;6.03;;;4.50;;
42196;SDS011;27866;48.146;17.098;2022-12-07T13:54:46;5.95;;;3.88;;
42196;SDS011;27866;48.146;17.098;2022-12-07T13:59:17;6.97;;;4.32;;
42196;SDS011;27866;48.146;17.098;2022-12-07T14:03:32;6.97;;;4.57;;
42196;SDS011;27866;48.146;17.098;2022-12-07T14:12:28;6.43;;;4.07;;
42196;SDS011;27866;48.146;17.098;2022-12-07T14:16:41;6.90;;;4.20;;
42196;SDS011;27866;48.146;17.098;2022-12-07T14:21:01;7.72;;;3.92;;
42196;SDS011;27866;48.146;17.098;2022-12-07T14:25:47;5.60;;;3.80;;
42196;SDS011;27866;48.146;17.098;2022-12-07T14:30:01;7.03;;;3.95;;
42196;SDS011;27866;48.146;17.098;2022-12-07T14:34:14;5.13;;;3.72;;
42196;SDS011;27866;48.146;17.098;2022-12-07T14:38:26;11.27;;;5.40;;
42196;SDS011;27866;48.146;17.098;2022-12-07T14:42:37;6.82;;;4.20;;
42196;SDS011;27866;48.146;17.098;2022-12-07T14:46:49;12.00;;;4.55;;
42196;SDS011;27866;48.146;17.098;2022-12-07T14:51:01;7.13;;;4.45;;
42196;SDS011;27866;48.146;17.098;2022-12-07T14:55:16;6.47;;;4.65;;
42196;SDS011;27866;48.146;17.098;2022-12-07T14:59:38;8.90;;;4.93;;
42196;SDS011;27866;48.146;17.098;2022-12-07T15:03:49;8.80;;;5.32;;
42196;SDS011;27866;48.146;17.098;2022-12-07T15:08:00;6.30;;;4.28;;
42196;SDS011;27866;48.146;17.098;2022-12-07T15:12:12;7.55;;;4.80;;
42196;SDS011;27866;48.146;17.098;2022-12-07T15:16:23;8.38;;;4.88;;
42196;SDS011;27866;48.146;17.098;2022-12-07T15:20:34;7.70;;;4.88;;
42196;SDS011;27866;48.146;17.098;2022-12-07T15:24:45;9.00;;;5.75;;
42196;SDS011;27866;48.146;17.098;2022-12-07T15:28:57;9.30;;;5.00;;
42196;SDS011;27866;48.146;17.098;2022-12-07T15:33:08;10.30;;;6.13;;
42196;SDS011;27866;48.146;17.098;2022-12-07T15:37:19;6.68;;;4.47;;
42196;SDS011;27866;48.146;17.098;2022-12-07T15:41:30;10.30;;;5.78;;
42196;SDS011;27866;48.146;17.098;2022-12-07T15:45:41;9.88;;;5.70;;
42196;SDS011;27866;48.146;17.098;2022-12-07T15:49:53;9.15;;;5.88;;
42196;SDS011;27866;48.146;17.098;2022-12-07T15:54:04;10.93;;;5.97;;
42196;SDS011;27866;48.146;17.098;2022-12-07T15:58:15;9.43;;;6.40;;
42196;SDS011;27866;48.146;17.098;2022-12-07T16:02:26;10.60;;;6.20;;
42196;SDS011;27866;48.146;17.098;2022-12-07T16:06:37;11.00;;;6.03;;
42196;SDS011;27866;48.146;17.098;2022-12-07T16:10:49;11.45;;;5.38;;
42196;SDS011;27866;48.146;17.098;2022-12-07T16:15:00;11.93;;;6.82;;
42196;SDS011;27866;48.146;17.098;2022-12-07T16:19:11;10.32;;;5.60;;
42196;SDS011;27866;48.146;17.098;2022-12-07T16:23:22;11.07;;;6.55;;
42196;SDS011;27866;48.146;17.098;2022-12-07T16:27:34;10.13;;;6.40;;
42196;SDS011;27866;48.146;17.098;2022-12-07T16:31:45;8.73;;;6.18;;
42196;SDS011;27866;48.146;17.098;2022-12-07T16:35:57;9.23;;;5.90;;
42196;SDS011;27866;48.146;17.098;2022-12-07T16:40:09;12.27;;;6.95;;
42196;SDS011;27866;48.146;17.098;2022-12-07T16:44:21;10.13;;;6.40;;
42196;SDS011;27866;48.146;17.098;2022-12-07T16:48:37;9.82;;;6.25;;
42196;SDS011;27866;48.146;17.098;2022-12-07T16:52:49;9.70;;;6.22;;
42196;SDS011;27866;48.146;17.098;2022-12-07T16:57:00;12.15;;;6.75;;
42196;SDS011;27866;48.146;17.098;2022-12-07T17:01:15;10.70;;;6.03;;
42196;SDS011;27866;48.146;17.098;2022-12-07T17:05:32;13.23;;;6.78;;
42196;SDS011;27866;48.146;17.098;2022-12-07T17:09:43;13.70;;;6.88;;
42196;SDS011;27866;48.146;17.098;2022-12-07T17:13:54;12.05;;;7.55;;
42196;SDS011;27866;48.146;17.098;2022-12-07T17:18:25;13.63;;;7.03;;
42196;SDS011;27866;48.146;17.098;2022-12-07T17:22:39;12.73;;;7.53;;
42196;SDS011;27866;48.146;17.098;2022-12-07T17:26:50;11.23;;;7.25;;
42196;SDS011;27866;48.146;17.098;2022-12-07T17:31:04;10.32;;;6.93;;
42196;SDS011;27866;48.146;17.098;2022-12-07T17:35:17;11.93;;;7.38;;
42196;SDS011;27866;48.146;17.098;2022-12-07T17:39:28;10.90;;;7.57;;
42196;SDS011;27866;48.146;17.098;2022-12-07T17:43:39;10.50;;;6.50;;
42196;SDS011;27866;48.146;17.098;2022-12-07T17:47:50;13.25;;;7.43;;
42196;SDS011;27866;48.146;17.098;2022-12-07T17:52:02;12.85;;;7.88;;
42196;SDS011;27866;48.146;17.098;2022-12-07T17:56:32;11.38;;;7.10;;
42196;SDS011;27866;48.146;17.098;2022-12-07T18:00:43;12.65;;;7.25;;
42196;SDS011;27866;48.146;17.098;2022-12-07T18:04:54;14.00;;;7.47;;
42196;SDS011;27866;48.146;17.098;2022-12-07T18:09:05;13.13;;;6.97;;
42196;SDS011;27866;48.146;17.098;2022-12-07T18:13:17;12.35;;;7.45;;
42196;SDS011;27866;48.146;17.098;2022-12-07T18:17:47;11.50;;;7.22;;
42196;SDS011;27866;48.146;17.098;2022-12-07T18:21:59;11.73;;;7.55;;
42196;SDS011;27866;48.146;17.098;2022-12-07T18:26:11;11.25;;;7.22;;
42196;SDS011;27866;48.146;17.098;2022-12-07T18:30:23;12.13;;;7.10;;
42196;SDS011;27866;48.146;17.098;2022-12-07T18:34:34;13.15;;;7.05;;
42196;SDS011;27866;48.146;17.098;2022-12-07T18:38:45;13.15;;;7.70;;
42196;SDS011;27866;48.146;17.098;2022-12-07T18:42:57;10.45;;;7.03;;
42196;SDS011;27866;48.146;17.098;2022-12-07T18:47:08;12.38;;;7.47;;
42196;SDS011;27866;48.146;17.098;2022-12-07T18:51:19;13.13;;;7.65;;
42196;SDS011;27866;48.146;17.098;2022-12-07T18:55:30;12.77;;;7.53;;
42196;SDS011;27866;48.146;17.098;2022-12-07T18:59:42;12.48;;;7.30;;
42196;SDS011;27866;48.146;17.098;2022-12-07T19:03:57;14.35;;;8.32;;
42196;SDS011;27866;48.146;17.098;2022-12-07T19:08:09;12.25;;;7.30;;
42196;SDS011;27866;48.146;17.098;2022-12-07T19:12:20;11.80;;;7.15;;
42196;SDS011;27866;48.146;17.098;2022-12-07T19:16:31;14.13;;;7.57;;
42196;SDS011;27866;48.146;17.098;2022-12-07T19:20:42;11.90;;;7.18;;
42196;SDS011;27866;48.146;17.098;2022-12-07T19:24:53;12.55;;;7.90;;
42196;SDS011;27866;48.146;17.098;2022-12-07T19:29:05;14.63;;;7.85;;
42196;SDS011;27866;48.146;17.098;2022-12-07T19:33:16;12.55;;;7.22;;
42196;SDS011;27866;48.146;17.098;2022-12-07T19:37:28;11.13;;;7.18;;
42196;SDS011;27866;48.146;17.098;2022-12-07T19:41:39;14.88;;;7.90;;
42196;SDS011;27866;48.146;17.098;2022-12-07T19:45:52;11.52;;;6.95;;
42196;SDS011;27866;48.146;17.098;2022-12-07T19:50:04;13.70;;;7.78;;
42196;SDS011;27866;48.146;17.098;2022-12-07T19:54:16;11.77;;;7.18;;
42196;SDS011;27866;48.146;17.098;2022-12-07T20:02:41;12.75;;;7.32;;
42196;SDS011;27866;48.146;17.098;2022-12-07T20:06:53;12.90;;;7.20;;
42196;SDS011;27866;48.146;17.098;2022-12-07T20:11:08;12.18;;;7.38;;
42196;SDS011;27866;48.146;17.098;2022-12-07T20:15:38;11.93;;;7.28;;
42196;SDS011;27866;48.146;17.098;2022-12-07T20:19:49;15.00;;;8.15;;
42196;SDS011;27866;48.146;17.098;2022-12-07T20:24:01;13.65;;;8.75;;
42196;SDS011;27866;48.146;17.098;2022-12-07T20:28:13;14.40;;;8.20;;
42196;SDS011;27866;48.146;17.098;2022-12-07T20:32:25;13.85;;;7.65;;
42196;SDS011;27866;48.146;17.098;2022-12-07T20:36:36;16.30;;;8.70;;
42196;SDS011;27866;48.146;17.098;2022-12-07T20:40:48;14.23;;;8.55;;
42196;SDS011;27866;48.146;17.098;2022-12-07T20:44:59;13.38;;;8.15;;
42196;SDS011;27866;48.146;17.098;2022-12-07T20:49:13;16.33;;;7.95;;
42196;SDS011;27866;48.146;17.098;2022-12-07T20:53:26;12.63;;;8.17;;
42196;SDS011;27866;48.146;17.098;2022-12-07T20:57:37;12.95;;;7.22;;
42196;SDS011;27866;48.146;17.098;2022-12-07T21:01:48;12.73;;;8.30;;
42196;SDS011;27866;48.146;17.098;2022-12-07T21:06:00;11.88;;;7.72;;
42196;SDS011;27866;48.146;17.098;2022-12-07T21:10:12;13.63;;;7.88;;
42196;SDS011;27866;48.146;17.098;2022-12-07T21:14:23;12.13;;;8.20;;
42196;SDS011;27866;48.146;17.098;2022-12-07T21:18:34;13.23;;;8.15;;
42196;SDS011;27866;48.146;17.098;2022-12-07T21:22:47;14.60;;;8.40;;
42196;SDS011;27866;48.146;17.098;2022-12-07T21:26:58;14.45;;;7.82;;
42196;SDS011;27866;48.146;17.098;2022-12-07T21:31:10;14.65;;;8.55;;
42196;SDS011;27866;48.146;17.098;2022-12-07T21:35:22;15.50;;;9.00;;
42196;SDS011;27866;48.146;17.098;2022-12-07T21:39:33;22.15;;;10.77;;
42196;SDS011;27866;48.146;17.098;2022-12-07T21:43:44;16.90;;;8.93;;
42196;SDS011;27866;48.146;17.098;2022-12-07T21:47:57;14.98;;;8.65;;
42196;SDS011;27866;48.146;17.098;2022-12-07T21:52:08;16.20;;;8.27;;
42196;SDS011;27866;48.146;17.098;2022-12-07T21:56:20;14.80;;;9.00;;
42196;SDS011;27866;48.146;17.098;2022-12-07T22:00:34;14.27;;;8.60;;
42196;SDS011;27866;48.146;17.098;2022-12-07T22:04:46;15.00;;;9.23;;
42196;SDS011;27866;48.146;17.098;2022-12-07T22:08:57;13.68;;;8.35;;
42196;SDS011;27866;48.146;17.098;2022-12-07T22:13:08;14.20;;;8.13;;
42196;SDS011;27866;48.146;17.098;2022-12-07T22:17:20;18.33;;;8.50;;
42196;SDS011;27866;48.146;17.098;2022-12-07T22:21:31;13.32;;;7.70;;
42196;SDS011;27866;48.146;17.098;2022-12-07T22:25:43;12.27;;;7.63;;
42196;SDS011;27866;48.146;17.098;2022-12-07T22:29:54;14.73;;;7.75;;
42196;SDS011;27866;48.146;17.098;2022-12-07T22:34:05;13.25;;;7.05;;
42196;SDS011;27866;48.146;17.098;2022-12-07T22:38:16;28.40;;;12.23;;
42196;SDS011;27866;48.146;17.098;2022-12-07T22:42:28;16.05;;;8.65;;
42196;SDS011;27866;48.146;17.098;2022-12-07T22:46:39;13.93;;;8.65;;
42196;SDS011;27866;48.146;17.098;2022-12-07T22:50:50;12.68;;;8.02;;
42196;SDS011;27866;48.146;17.098;2022-12-07T22:55:03;15.77;;;7.47;;
42196;SDS011;27866;48.146;17.098;2022-12-07T22:59:14;16.17;;;8.80;;
42196;SDS011;27866;48.146;17.098;2022-12-07T23:03:27;33.10;;;12.38;;
42196;SDS011;27866;48.146;17.098;2022-12-07T23:07:38;22.33;;;10.63;;
42196;SDS011;27866;48.146;17.098;2022-12-07T23:11:49;14.10;;;8.25;;
42196;SDS011;27866;48.146;17.098;2022-12-07T23:16:19;18.25;;;9.10;;
42196;SDS011;27866;48.146;17.098;2022-12-07T23:20:30;16.08;;;9.05;;
42196;SDS011;27866;48.146;17.098;2022-12-07T23:24:41;13.52;;;8.40;;
42196;SDS011;27866;48.146;17.098;2022-12-07T23:28:52;14.35;;;8.88;;
42196;SDS011;27866;48.146;17.098;2022-12-07T23:33:04;13.45;;;8.52;;
42196;SDS011;27866;48.146;17.098;2022-12-07T23:37:15;14.77;;;8.55;;
42196;SDS011;27866;48.146;17.098;2022-12-07T23:41:27;15.30;;;9.07;;
42196;SDS011;27866;48.146;17.098;2022-12-07T23:45:43;14.40;;;8.27;;
42196;SDS011;27866;48.146;17.098;2022-12-07T23:49:56;14.25;;;8.23;;
42196;SDS011;27866;48.146;17.098;2022-12-07T23:54:07;15.48;;;8.43;;
42196;SDS011;27866;48.146;17.098;2022-12-07T23:58:20;13.13;;;7.97;;
